METAR Data
IDs: Format: Raw Decoded Include TAF

Data at: 2225 UTC 01 Dec 2021

METAR for:KDLZ (Delaware Muni, OH, US)
Text:KDLZ 012215Z AUTO 15008KT 7SM SCT004 BKN033 OVC070 05/03 A2988 RMK AO2 P0002
Temperature: 5.0°C ( 41°F)
Dewpoint: 3.0°C ( 37°F) [RH = 87%]
Pressure (altimeter):29.88 inches Hg (1011.9 mb)
Winds:from the SSE (150 degrees) at 9 MPH (8 knots; 4.1 m/s)
Visibility: 7 sm ( 11 km)
Ceiling:3300 feet AGL
Clouds: scattered clouds at 400 feet AGL, broken clouds at 3300 feet AGL, overcast cloud deck at 7000 feet AGL
QC Flag:automated observation with no human augmentation